Time;durP1;ratioP1;P1;durP2;ratioP2;P2;SDS_P1;SDS_P2;PMS_P1;PMS_P2;Temp;Humidity;BMP_temperature;BMP_pressure;BME280_temperature;BME280_humidity;BME280_pressure;Samples;Min_cycle;Max_cycle;Signal;HPM_P1;HPM_P2
2022/09/14 00:01:24;;;;;;;10.73;4.50;;;;;;;15.37;100.00;100800.56;5032521;28;20021;-76
2022/09/14 00:03:55;;;;;;;11.70;5.05;;;;;;;15.40;100.00;100797.81;5032074;28;20029;-77
2022/09/14 00:06:21;;;;;;;8.50;4.60;;;;;;;15.22;100.00;100778.44;5033873;28;20025;-77
2022/09/14 00:08:52;;;;;;;12.85;4.88;;;;;;;15.23;100.00;100784.53;5036745;28;20028;-76
2022/09/14 00:11:19;;;;;;;10.05;4.53;;;;;;;15.16;100.00;100788.34;5035464;28;20096;-76
2022/09/14 00:13:46;;;;;;;18.77;5.78;;;;;;;15.07;100.00;100786.97;5036394;28;20036;-76
2022/09/14 00:16:14;;;;;;;12.05;5.28;;;;;;;15.01;100.00;100789.88;5036044;28;20033;-76
2022/09/14 00:18:41;;;;;;;12.77;5.55;;;;;;;15.06;100.00;100789.69;5036030;28;20527;-75
2022/09/14 00:21:08;;;;;;;12.45;6.30;;;;;;;15.09;100.00;100793.03;5036396;28;20057;-75
2022/09/14 00:23:36;;;;;;;9.27;5.57;;;;;;;15.08;100.00;100786.06;5035173;28;20874;-75
2022/09/14 00:26:03;;;;;;;11.60;6.00;;;;;;;15.04;100.00;100795.00;5036254;28;20080;-74
2022/09/14 00:28:29;;;;;;;12.57;5.03;;;;;;;15.01;100.00;100795.13;5036053;28;20025;-75
2022/09/14 00:30:54;;;;;;;10.63;5.10;;;;;;;15.03;100.00;100798.53;5035584;28;20128;-77
2022/09/14 00:33:19;;;;;;;14.43;5.15;;;;;;;14.97;100.00;100789.13;5035792;28;20103;-76
2022/09/14 00:35:45;;;;;;;9.82;5.70;;;;;;;14.98;100.00;100793.50;5036205;28;20049;-76
2022/09/14 00:38:10;;;;;;;11.00;4.80;;;;;;;14.92;100.00;100791.13;5035396;28;20473;-77
2022/09/14 00:40:36;;;;;;;12.52;4.57;;;;;;;14.80;100.00;100780.28;5035712;28;20026;-76
2022/09/14 00:43:01;;;;;;;10.77;4.57;;;;;;;14.74;100.00;100776.97;5035795;28;20037;-76
2022/09/14 00:45:27;;;;;;;11.85;5.47;;;;;;;14.74;100.00;100771.72;5035095;28;20021;-77
2022/09/14 00:47:53;;;;;;;14.60;4.82;;;;;;;14.71;100.00;100769.25;5036342;28;20029;-76
2022/09/14 00:50:19;;;;;;;12.55;5.22;;;;;;;14.74;100.00;100768.25;5036143;28;20045;-77
2022/09/14 00:52:47;;;;;;;9.73;5.50;;;;;;;14.76;100.00;100758.56;5035489;28;20021;-77
2022/09/14 00:55:16;;;;;;;12.65;5.38;;;;;;;14.72;100.00;100751.75;5036343;28;20056;-76
2022/09/14 00:57:45;;;;;;;10.88;5.68;;;;;;;14.68;100.00;100748.41;5035920;28;20025;-76
2022/09/14 01:00:13;;;;;;;15.88;6.15;;;;;;;14.72;100.00;100743.88;5034995;28;20026;-76
2022/09/14 01:02:40;;;;;;;12.80;5.30;;;;;;;14.66;100.00;100738.88;5035388;28;20048;-76
2022/09/14 01:05:06;;;;;;;16.02;5.63;;;;;;;14.69;100.00;100739.59;5035432;28;20036;-75
2022/09/14 01:07:54;;;;;;;16.13;6.20;;;;;;;14.60;100.00;100732.09;5034310;28;20028;-76
2022/09/14 01:10:44;;;;;;;17.88;6.38;;;;;;;14.61;100.00;100739.06;5035352;28;20553;-75
2022/09/14 01:13:27;;;;;;;17.55;6.15;;;;;;;14.56;100.00;100725.28;5034639;28;20036;-77
2022/09/14 01:15:55;;;;;;;19.30;5.93;;;;;;;14.62;100.00;100725.03;5035374;28;20026;-76
2022/09/14 01:18:28;;;;;;;10.18;6.10;;;;;;;14.61;100.00;100714.59;5034433;28;20384;-76
2022/09/14 01:21:05;;;;;;;10.25;5.88;;;;;;;14.62;100.00;100719.78;5034774;28;20116;-76
2022/09/14 01:23:48;;;;;;;13.60;5.82;;;;;;;14.60;100.00;100726.88;5035182;28;20095;-75
2022/09/14 01:26:43;;;;;;;11.67;5.87;;;;;;;14.64;100.00;100725.81;5035305;28;20115;-76
2022/09/14 01:29:15;;;;;;;22.30;5.90;;;;;;;14.66;100.00;100731.84;5035467;28;20034;-75
2022/09/14 01:32:02;;;;;;;14.82;5.90;;;;;;;14.67;100.00;100727.47;5034819;28;20100;-76
2022/09/14 01:35:01;;;;;;;13.43;6.15;;;;;;;14.71;100.00;100737.78;5034165;28;20064;-75
2022/09/14 01:37:39;;;;;;;12.80;5.88;;;;;;;14.72;100.00;100731.59;5034708;28;20069;-75
2022/09/14 01:40:31;;;;;;;10.63;5.53;;;;;;;14.66;100.00;100731.84;5034783;28;20385;-75
2022/09/14 01:43:02;;;;;;;11.75;5.50;;;;;;;14.66;100.00;100723.97;5033561;28;20037;-75
2022/09/14 01:45:30;;;;;;;11.90;5.50;;;;;;;14.52;100.00;100721.94;5034682;28;20053;-74
2022/09/14 01:48:05;;;;;;;12.15;5.63;;;;;;;14.50;100.00;100721.16;5034137;28;20025;-74
2022/09/14 01:50:38;;;;;;;11.15;4.95;;;;;;;14.51;100.00;100717.59;5034164;28;20076;-74
2022/09/14 01:53:22;;;;;;;12.80;5.35;;;;;;;14.56;100.00;100708.69;5034745;28;20057;-74
2022/09/14 01:55:55;;;;;;;6.82;5.10;;;;;;;14.54;100.00;100719.25;5033825;28;20025;-74
2022/09/14 01:58:33;;;;;;;11.18;5.13;;;;;;;14.58;100.00;100715.56;5034456;28;20029;-74
2022/09/14 02:01:01;;;;;;;11.30;5.85;;;;;;;14.56;100.00;100712.19;5034532;28;20029;-74
2022/09/14 02:03:39;;;;;;;12.48;5.15;;;;;;;14.40;100.00;100701.44;5033471;28;20014;-73
2022/09/14 02:06:23;;;;;;;9.35;4.55;;;;;;;14.38;100.00;100705.03;5034272;28;20440;-73
2022/09/14 02:08:50;;;;;;;13.85;4.93;;;;;;;14.43;100.00;100705.69;5033714;28;20052;-73
2022/09/14 02:11:16;;;;;;;12.55;5.40;;;;;;;14.40;100.00;100713.69;5034323;28;20021;-74
2022/09/14 02:13:41;;;;;;;8.73;5.47;;;;;;;14.42;100.00;100711.84;5033836;28;20083;-74
2022/09/14 02:16:07;;;;;;;10.45;5.45;;;;;;;14.46;100.00;100716.06;5033505;28;20052;-74
2022/09/14 02:18:32;;;;;;;16.52;6.15;;;;;;;14.45;100.00;100706.47;5033925;28;20021;-73
2022/09/14 02:21:15;;;;;;;14.00;5.15;;;;;;;14.49;100.00;100708.94;5034253;28;20048;-73
2022/09/14 02:23:41;;;;;;;15.20;5.10;;;;;;;14.42;100.00;100710.09;5033141;28;20041;-73
2022/09/14 02:26:07;;;;;;;8.77;5.18;;;;;;;14.39;100.00;100707.59;5033892;28;20105;-74
2022/09/14 02:28:32;;;;;;;10.55;4.93;;;;;;;14.32;100.00;100715.75;5032784;28;20030;-73
2022/09/14 02:31:15;;;;;;;13.82;4.70;;;;;;;14.33;100.00;100717.50;5033003;28;20052;-73
2022/09/14 02:33:51;;;;;;;11.55;5.22;;;;;;;14.25;100.00;100713.41;5033820;28;20037;-73
2022/09/14 02:36:57;;;;;;;10.73;5.32;;;;;;;14.26;100.00;100719.50;5033982;28;20029;-73
2022/09/14 02:39:33;;;;;;;11.70;5.63;;;;;;;14.24;100.00;100711.69;5003283;28;20061;-73
2022/09/14 02:42:18;;;;;;;12.13;4.78;;;;;;;14.24;100.00;100723.97;5033684;28;20022;-73
2022/09/14 02:45:05;;;;;;;10.63;5.53;;;;;;;14.19;100.00;100712.78;5032512;28;20378;-73
2022/09/14 02:47:54;;;;;;;14.27;5.13;;;;;;;14.22;100.00;100715.28;5033287;28;20040;-73
2022/09/14 02:50:31;;;;;;;17.92;5.30;;;;;;;14.24;100.00;100716.09;5033521;28;20041;-73
2022/09/14 02:53:15;;;;;;;11.60;5.20;;;;;;;14.21;100.00;100711.81;5032802;28;20034;-73
2022/09/14 02:55:43;;;;;;;;;;;;;;;14.20;100.00;100710.13;5033571;28;20042;-73
2022/09/14 02:58:11;;;;;;;9.55;4.90;;;;;;;14.18;100.00;100698.84;5032511;28;20345;-73
2022/09/14 03:00:47;;;;;;;11.75;5.40;;;;;;;14.18;100.00;100693.59;5033278;28;20100;-73
2022/09/14 03:03:17;;;;;;;10.65;5.00;;;;;;;14.21;100.00;100692.63;5033458;28;20037;-73
2022/09/14 03:05:43;;;;;;;13.05;5.20;;;;;;;14.19;100.00;100687.44;5032302;28;20104;-73
2022/09/14 03:08:09;;;;;;;14.93;5.47;;;;;;;14.17;100.00;100691.91;5033350;28;20429;-73
2022/09/14 03:10:35;;;;;;;13.43;4.97;;;;;;;14.03;100.00;100684.59;5032884;28;20060;-73
2022/09/14 03:13:00;;;;;;;12.65;5.25;;;;;;;14.10;100.00;100674.72;5032596;28;20068;-73
2022/09/14 03:15:26;;;;;;;15.63;5.63;;;;;;;14.17;100.00;100691.91;5033039;28;20064;-73
2022/09/14 03:17:52;;;;;;;11.25;5.32;;;;;;;14.15;100.00;100682.38;5033347;28;20462;-74
2022/09/14 03:20:23;;;;;;;7.65;5.35;;;;;;;14.16;100.00;100684.06;5032425;28;20026;-73
2022/09/14 03:22:49;;;;;;;11.32;5.68;;;;;;;14.13;100.00;100685.06;5033010;28;20389;-73
2022/09/14 03:25:15;;;;;;;12.43;5.47;;;;;;;14.10;100.00;100682.56;5032860;28;20079;-73
2022/09/14 03:27:40;;;;;;;15.10;5.50;;;;;;;14.01;100.00;100689.03;5032125;28;20037;-73
2022/09/14 03:30:07;;;;;;;12.40;5.15;;;;;;;14.00;100.00;100676.00;5033055;28;20485;-73
2022/09/14 03:32:33;;;;;;;15.52;5.30;;;;;;;14.01;100.00;100672.47;5032735;28;20091;-74
2022/09/14 03:34:58;;;;;;;9.75;5.45;;;;;;;14.03;100.00;100666.25;5032152;28;20388;-73
2022/09/14 03:37:25;;;;;;;12.35;6.18;;;;;;;14.07;100.00;100660.88;5032686;28;20037;-74
2022/09/14 03:39:50;;;;;;;12.60;5.47;;;;;;;14.11;100.00;100663.31;5032406;28;20029;-73
2022/09/14 03:42:16;;;;;;;17.80;5.68;;;;;;;14.13;100.00;100664.09;5032224;28;20037;-74
2022/09/14 03:44:41;;;;;;;10.45;5.57;;;;;;;14.11;100.00;100639.72;5032625;28;20022;-73
2022/09/14 03:47:07;;;;;;;10.75;5.35;;;;;;;14.13;100.00;100648.38;5032901;28;20498;-74
2022/09/14 03:49:32;;;;;;;13.05;5.55;;;;;;;14.15;100.00;100648.28;5031714;28;20076;-74
2022/09/14 03:51:58;;;;;;;10.32;5.60;;;;;;;14.12;100.00;100651.03;5032586;28;20045;-73
2022/09/14 03:54:23;;;;;;;11.00;5.63;;;;;;;14.04;100.00;100651.38;5031611;28;20042;-73
2022/09/14 03:56:51;;;;;;;12.82;5.63;;;;;;;13.91;100.00;100640.53;5032617;28;20033;-73
2022/09/14 03:59:16;;;;;;;13.98;5.90;;;;;;;13.92;100.00;100641.38;5032840;28;20017;-73
2022/09/14 04:01:41;;;;;;;12.00;5.90;;;;;;;13.89;100.00;100631.00;5031506;28;20044;-73
2022/09/14 04:04:06;;;;;;;10.63;5.80;;;;;;;13.87;100.00;100640.72;5032696;28;20477;-73
2022/09/14 04:06:31;;;;;;;13.70;5.65;;;;;;;13.78;100.00;100636.69;5032341;28;20033;-73
2022/09/14 04:08:58;;;;;;;10.90;5.30;;;;;;;13.69;100.00;100637.06;5031796;28;20022;-73
2022/09/14 04:11:24;;;;;;;11.90;5.50;;;;;;;13.73;100.00;100639.50;5032363;28;20032;-73
2022/09/14 04:13:51;;;;;;;11.77;5.88;;;;;;;13.69;100.00;100634.44;5032633;28;20041;-74
2022/09/14 04:16:19;;;;;;;16.00;5.80;;;;;;;13.77;100.00;100638.47;5031896;28;20052;-73
2022/09/14 04:18:45;;;;;;;14.32;6.20;;;;;;;13.81;100.00;100637.41;5032300;28;20108;-73
2022/09/14 04:21:19;;;;;;;8.93;5.63;;;;;;;13.78;100.00;100639.31;5032278;28;20389;-73
2022/09/14 04:23:45;;;;;;;14.48;5.45;;;;;;;13.83;100.00;100639.97;5031466;28;20049;-73
2022/09/14 04:26:12;;;;;;;10.32;5.63;;;;;;;13.84;100.00;100643.47;5032648;28;20049;-73
2022/09/14 04:28:38;;;;;;;14.40;5.47;;;;;;;13.72;100.00;100623.84;5032129;28;20468;-73
2022/09/14 04:31:04;;;;;;;13.25;5.95;;;;;;;13.74;100.00;100638.59;5031754;28;20033;-73
2022/09/14 04:33:33;;;;;;;14.23;6.13;;;;;;;13.72;100.00;100637.78;5031915;28;20080;-73
2022/09/14 04:36:02;;;;;;;7.38;4.68;;;;;;;13.66;100.00;100626.69;5032285;28;20025;-74
2022/09/14 04:38:29;;;;;;;13.30;4.90;;;;;;;13.60;100.00;100627.78;5031504;28;20105;-73
2022/09/14 04:40:55;;;;;;;10.20;5.75;;;;;;;13.61;100.00;100628.66;5032454;28;20036;-74
2022/09/14 04:43:20;;;;;;;9.77;5.47;;;;;;;13.61;100.00;100620.81;5032048;28;20048;-74
2022/09/14 04:45:46;;;;;;;12.10;5.00;;;;;;;13.59;100.00;100618.22;5031526;28;20029;-74
2022/09/14 04:48:11;;;;;;;13.65;5.10;;;;;;;13.61;100.00;100626.03;5032370;28;20032;-75
2022/09/14 04:50:36;;;;;;;13.82;5.50;;;;;;;13.53;100.00;100621.94;5031047;28;20481;-75
2022/09/14 04:53:03;;;;;;;12.00;5.10;;;;;;;13.54;100.00;100620.19;5034382;28;20236;-75
2022/09/14 04:55:28;;;;;;;9.23;5.03;;;;;;;13.54;100.00;100617.56;5035634;28;20537;-74
2022/09/14 04:57:54;;;;;;;12.75;5.38;;;;;;;13.56;100.00;100610.50;5035057;28;20033;-74
2022/09/14 05:00:19;;;;;;;7.93;4.35;;;;;;;13.52;100.00;100611.53;5035692;28;20028;-74
2022/09/14 05:02:45;;;;;;;13.77;5.03;;;;;;;13.47;100.00;100598.63;5035317;28;20047;-74
2022/09/14 05:05:10;;;;;;;10.32;5.50;;;;;;;13.56;100.00;100610.50;5034691;28;20025;-74
2022/09/14 05:07:36;;;;;;;12.15;4.82;;;;;;;13.56;100.00;100611.34;5035364;28;20079;-74
2022/09/14 05:10:01;;;;;;;9.25;4.78;;;;;;;13.56;100.00;100605.25;5035591;28;20036;-73
2022/09/14 05:12:26;;;;;;;10.90;4.88;;;;;;;13.48;100.00;100584.63;5034473;28;20548;-74
2022/09/14 05:14:52;;;;;;;8.45;4.53;;;;;;;13.49;100.00;100599.41;5035398;28;20030;-73
2022/09/14 05:17:17;;;;;;;8.15;4.68;;;;;;;13.50;100.00;100598.47;5035546;28;20014;-74
2022/09/14 05:19:42;;;;;;;12.70;4.75;;;;;;;13.45;100.00;100595.19;5034175;28;20025;-73
2022/09/14 05:22:08;;;;;;;9.65;4.68;;;;;;;13.41;100.00;100600.63;5035258;28;20393;-73
2022/09/14 05:24:33;;;;;;;8.15;4.25;;;;;;;13.43;100.00;100604.03;5034947;28;20074;-73
2022/09/14 05:26:58;;;;;;;7.18;4.10;;;;;;;13.35;100.00;100604.34;5034307;28;20512;-73
2022/09/14 05:29:24;;;;;;;9.23;4.13;;;;;;;13.41;100.00;100611.09;5034942;28;20033;-73
2022/09/14 05:31:49;;;;;;;11.85;4.20;;;;;;;13.38;100.00;100600.75;5034919;28;20366;-73
2022/09/14 05:34:15;;;;;;;11.07;4.43;;;;;;;13.42;100.00;100597.94;5034273;28;20021;-73
2022/09/14 05:36:40;;;;;;;8.68;4.20;;;;;;;13.42;100.00;100602.34;5034601;28;20039;-73
2022/09/14 05:39:07;;;;;;;12.43;4.75;;;;;;;13.43;100.00;100609.25;5035116;28;20025;-73
2022/09/14 05:41:32;;;;;;;8.40;4.82;;;;;;;13.40;100.00;100609.38;5033889;28;20045;-73
2022/09/14 05:43:58;;;;;;;11.90;4.80;;;;;;;13.44;100.00;100603.09;5034694;28;20025;-73
2022/09/14 05:46:24;;;;;;;10.73;5.13;;;;;;;13.49;100.00;100619.50;5034513;28;20111;-73
2022/09/14 05:48:50;;;;;;;9.25;4.53;;;;;;;13.51;100.00;100608.06;5033935;28;20057;-75
2022/09/14 05:51:21;;;;;;;9.45;4.72;;;;;;;13.56;100.00;100610.50;5034695;28;20123;-74
2022/09/14 05:53:55;;;;;;;10.82;4.88;;;;;;;13.57;100.00;100612.22;5034598;28;20030;-75
2022/09/14 05:56:22;;;;;;;9.02;4.90;;;;;;;13.56;100.00;100619.19;5034395;28;20037;-75
2022/09/14 05:58:48;;;;;;;14.45;5.40;;;;;;;13.63;100.00;100622.41;5034593;28;20025;-75
2022/09/14 06:01:16;;;;;;;15.00;5.70;;;;;;;13.59;100.00;100620.84;5033739;28;20034;-75
2022/09/14 06:03:43;;;;;;;9.65;5.03;;;;;;;13.59;100.00;100619.06;5034097;28;20084;-75
2022/09/14 06:06:11;;;;;;;11.38;5.03;;;;;;;13.55;100.00;100620.13;5033178;28;20026;-75
2022/09/14 06:08:37;;;;;;;10.52;4.90;;;;;;;13.54;100.00;100618.41;5033612;28;20032;-75
2022/09/14 06:11:11;;;;;;;14.00;4.78;;;;;;;13.53;100.00;100615.84;5034209;28;20025;-76
2022/09/14 06:13:36;;;;;;;11.88;5.03;;;;;;;13.58;100.00;100630.47;5034101;28;20079;-76
2022/09/14 06:16:07;;;;;;;12.68;5.70;;;;;;;13.62;100.00;100628.59;5033398;28;20431;-76
2022/09/14 06:18:34;;;;;;;10.93;5.30;;;;;;;13.61;100.00;100628.66;5034074;28;20067;-76
2022/09/14 06:21:00;;;;;;;12.13;5.45;;;;;;;13.61;100.00;100629.50;5034392;28;20025;-76
2022/09/14 06:23:27;;;;;;;11.98;5.65;;;;;;;13.58;100.00;100630.47;5033032;28;20031;-76
2022/09/14 06:25:54;;;;;;;13.18;5.35;;;;;;;13.56;100.00;100631.44;5033994;28;20487;-77
2022/09/14 06:28:20;;;;;;;9.02;5.15;;;;;;;13.52;100.00;100619.38;5034106;28;20107;-77
2022/09/14 06:30:45;;;;;;;10.63;4.70;;;;;;;13.53;100.00;100628.94;5033050;28;20469;-77
2022/09/14 06:33:10;;;;;;;14.88;4.90;;;;;;;13.51;100.00;100626.41;5033961;28;20041;-77
2022/09/14 06:35:36;;;;;;;10.38;4.95;;;;;;;13.50;100.00;100627.28;5033497;28;20365;-77
2022/09/14 06:38:01;;;;;;;13.40;5.82;;;;;;;13.49;100.00;100620.34;5033252;28;20095;-76
2022/09/14 06:40:27;;;;;;;14.20;5.78;;;;;;;13.47;100.00;100629.19;5033519;28;20029;-76
2022/09/14 06:42:52;;;;;;;9.80;5.60;;;;;;;13.48;100.00;100628.28;5033957;28;20024;-76
2022/09/14 06:45:18;;;;;;;12.05;6.85;;;;;;;13.55;100.00;100614.88;5032841;28;20022;-76
2022/09/14 06:47:43;;;;;;;9.75;5.95;;;;;;;13.60;100.00;100617.31;5033122;28;20018;-77
2022/09/14 06:50:08;;;;;;;12.40;5.80;;;;;;;13.57;100.00;100615.69;5032741;28;20124;-77
2022/09/14 06:52:37;;;;;;;12.80;6.00;;;;;;;13.58;100.00;100606.91;5033352;28;20029;-77
2022/09/14 06:55:02;;;;;;;13.48;6.32;;;;;;;13.58;100.00;100606.06;5033594;28;20381;-76
2022/09/14 06:57:28;;;;;;;13.40;6.63;;;;;;;13.59;100.00;100607.75;5032651;28;20036;-77
2022/09/14 06:59:53;;;;;;;12.75;5.80;;;;;;;13.56;100.00;100606.09;5033485;28;20021;-76
2022/09/14 07:02:19;;;;;;;10.77;5.72;;;;;;;13.49;100.00;100602.03;5033506;28;20105;-76
2022/09/14 07:04:44;;;;;;;11.32;5.75;;;;;;;13.44;100.00;100596.13;5032390;28;20099;-76
2022/09/14 07:07:09;;;;;;;10.63;5.05;;;;;;;13.48;100.00;100600.31;5033378;28;20053;-77
2022/09/14 07:09:35;;;;;;;10.43;5.35;;;;;;;13.49;100.00;100595.94;5033119;28;20531;-76
2022/09/14 07:12:01;;;;;;;13.40;5.50;;;;;;;13.46;100.00;100583.81;5032223;28;20104;-77
2022/09/14 07:14:26;;;;;;;12.10;5.50;;;;;;;13.47;100.00;100593.38;5032506;28;20038;-77
2022/09/14 07:16:52;;;;;;;11.10;5.57;;;;;;;13.49;100.00;100585.47;5033311;28;20362;-76
2022/09/14 07:19:17;;;;;;;12.40;4.95;;;;;;;13.47;100.00;100595.13;5032641;28;20514;-77
2022/09/14 07:21:42;;;;;;;12.82;5.60;;;;;;;13.47;100.00;100587.28;5032940;28;20025;-76
2022/09/14 07:24:10;;;;;;;13.65;5.20;;;;;;;13.46;100.00;100594.28;5033216;28;20052;-76
2022/09/14 07:26:41;;;;;;;10.40;5.50;;;;;;;13.44;100.00;100590.88;5032027;28;20032;-76
2022/09/14 07:29:11;;;;;;;12.77;5.18;;;;;;;13.48;100.00;100583.75;5033104;28;20084;-76
2022/09/14 07:31:53;;;;;;;10.82;5.07;;;;;;;13.48;100.00;100589.00;5032644;28;20483;-76
2022/09/14 07:34:19;;;;;;;10.02;4.72;;;;;;;13.49;100.00;100582.84;5032306;28;20053;-76
2022/09/14 07:36:45;;;;;;;9.13;5.05;;;;;;;13.52;100.00;100578.34;5032638;28;20048;-77
2022/09/14 07:39:12;;;;;;;8.52;5.30;;;;;;;13.55;100.00;100587.84;5032940;28;20477;-77
2022/09/14 07:41:38;;;;;;;7.38;4.78;;;;;;;13.65;100.00;100583.94;5031753;28;20079;-77
2022/09/14 07:44:06;;;;;;;9.93;4.88;;;;;;;13.63;100.00;100591.00;5032679;28;20029;-76
2022/09/14 07:46:37;;;;;;;11.15;5.13;;;;;;;13.74;100.00;100587.97;5031946;28;20057;-76
2022/09/14 07:49:04;;;;;;;10.30;5.80;;;;;;;13.80;100.00;100590.34;5032749;28;20393;-76
2022/09/14 07:51:31;;;;;;;16.60;5.70;;;;;;;13.78;100.00;100571.19;5032563;28;20026;-76
2022/09/14 07:53:58;;;;;;;10.32;5.70;;;;;;;13.80;100.00;100578.09;5031804;28;20397;-76
2022/09/14 07:56:24;;;;;;;13.02;5.57;;;;;;;13.79;100.00;100581.59;5032208;28;20489;-75
2022/09/14 07:58:53;;;;;;;12.73;5.40;;;;;;;13.76;100.00;100579.09;5032843;28;20064;-75
2022/09/14 08:01:18;;;;;;;12.50;5.47;;;;;;;13.76;100.00;100584.34;5031976;28;20097;-75
2022/09/14 08:03:45;;;;;;;10.13;6.28;;;;;;;13.81;100.00;100585.00;5032425;28;20632;-75
2022/09/14 08:06:16;;;;;;;11.90;5.68;;;;;;;13.83;100.00;100579.69;5033107;28;20372;-74
2022/09/14 08:08:44;;;;;;;8.90;5.55;;;;;;;13.86;100.00;100582.19;5031620;28;20056;-74
2022/09/14 08:11:15;;;;;;;10.52;6.60;;;;;;;13.89;100.00;100583.84;5032814;28;20038;-75
2022/09/14 08:13:45;;;;;;;13.75;6.78;;;;;;;13.90;100.00;100585.56;5032390;28;20044;-75
2022/09/14 08:16:11;;;;;;;12.32;6.57;;;;;;;13.92;100.00;100581.09;5031825;28;20022;-75
2022/09/14 08:18:38;;;;;;;14.13;6.95;;;;;;;13.92;100.00;100576.69;5032271;28;20120;-75
2022/09/14 08:21:08;;;;;;;13.20;7.63;;;;;;;13.95;100.00;100581.81;5032386;28;20051;-75
2022/09/14 08:23:34;;;;;;;12.80;9.50;;;;;;;13.93;100.00;100577.56;5031586;28;20105;-75
2022/09/14 08:26:07;;;;;;;18.80;10.23;;;;;;;13.95;100.00;100586.22;5032660;28;20497;-75
2022/09/14 08:28:33;;;;;;;16.13;9.90;;;;;;;13.98;100.00;100583.47;5034908;28;20120;-75
2022/09/14 08:31:03;;;;;;;20.27;10.25;;;;;;;13.88;100.00;100575.13;5036246;28;20491;-74
2022/09/14 08:33:30;;;;;;;16.90;10.15;;;;;;;13.92;100.00;100581.94;5035874;28;20040;-74
2022/09/14 08:35:56;;;;;;;16.83;10.93;;;;;;;14.04;100.00;100588.47;5035595;28;20037;-74
2022/09/14 08:38:21;;;;;;;15.27;10.35;;;;;;;14.04;100.00;100580.59;5035679;28;20029;-74
2022/09/14 08:40:47;;;;;;;15.68;10.35;;;;;;;14.15;100.00;100591.47;5036190;28;20104;-74
2022/09/14 08:43:13;;;;;;;18.05;10.32;;;;;;;14.21;100.00;100590.38;5035322;28;20028;-74
2022/09/14 08:45:42;;;;;;;13.57;9.02;;;;;;;14.14;100.00;100587.16;5035652;28;20044;-74
2022/09/14 08:48:27;;;;;;;13.43;8.82;;;;;;;14.11;100.00;100584.66;5035810;28;20473;-74
2022/09/14 08:50:52;;;;;;;16.80;8.27;;;;;;;14.14;100.00;100591.53;5034973;28;20045;-78
2022/09/14 08:53:21;;;;;;;17.40;8.27;;;;;;;14.14;100.00;100596.78;5035849;28;20531;-74
2022/09/14 08:55:49;;;;;;;16.70;8.13;;;;;;;14.19;100.00;100597.44;5035871;28;20025;-74
2022/09/14 08:58:39;;;;;;;11.95;7.38;;;;;;;14.16;100.00;100600.19;5034963;28;20032;-74
2022/09/14 09:01:32;;;;;;;16.02;9.15;;;;;;;14.04;100.00;100597.16;5035838;28;20057;-74
2022/09/14 09:04:27;;;;;;;18.35;8.55;;;;;;;14.07;100.00;100600.59;5034932;28;20033;-74
2022/09/14 09:07:18;;;;;;;15.73;10.00;;;;;;;14.08;100.00;100599.66;5035398;28;20045;-75
2022/09/14 09:09:47;;;;;;;15.18;9.18;;;;;;;14.03;100.00;100597.25;5035378;28;20045;-75
2022/09/14 09:12:19;;;;;;;15.20;9.65;;;;;;;14.09;100.00;100593.50;5034713;28;20022;-74
2022/09/14 09:15:22;;;;;;;16.25;10.05;;;;;;;14.10;100.00;100596.06;5035148;28;20029;-75
2022/09/14 09:17:54;;;;;;;18.95;11.07;;;;;;;14.08;100.00;100592.66;5034874;28;20030;-75
2022/09/14 09:20:25;;;;;;;17.35;10.30;;;;;;;14.11;100.00;100589.91;5035468;28;20029;-75
2022/09/14 09:23:10;;;;;;;17.92;10.48;;;;;;;14.08;100.00;100581.31;5035348;28;20033;-75
2022/09/14 09:25:54;;;;;;;19.98;10.80;;;;;;;14.09;100.00;100590.88;5034144;28;20040;-75
2022/09/14 09:28:22;;;;;;;16.50;10.63;;;;;;;14.18;100.00;100583.47;5035343;28;20034;-76
2022/09/14 09:30:48;;;;;;;16.30;10.57;;;;;;;14.25;100.00;100587.53;5035228;28;20025;-75
2022/09/14 09:33:32;;;;;;;17.42;11.38;;;;;;;14.36;100.00;100587.09;5034264;28;20033;-75
2022/09/14 09:35:58;;;;;;;16.30;10.90;;;;;;;14.41;100.00;100581.63;5035054;28;20036;-75
2022/09/14 09:38:26;;;;;;;15.60;11.75;;;;;;;14.46;100.00;100577.91;5034185;28;20029;-75
2022/09/14 09:41:00;;;;;;;18.20;11.75;;;;;;;14.46;100.00;100585.78;5034387;28;20029;-76
2022/09/14 09:43:25;;;;;;;20.15;11.55;;;;;;;14.44;100.00;100582.34;5034617;28;20021;-76
2022/09/14 09:46:03;;;;;;;22.63;12.35;;;;;;;14.53;100.00;100591.63;5034931;28;20036;-76
2022/09/14 09:48:37;;;;;;;18.10;12.07;;;;;;;14.56;100.00;100586.25;5034490;28;20025;-76
2022/09/14 09:51:22;;;;;;;18.13;11.77;;;;;;;14.57;100.00;100582.72;5034574;28;20039;-76
2022/09/14 09:53:52;;;;;;;19.92;12.35;;;;;;;14.63;100.00;100586.84;5023137;28;20083;-76
2022/09/14 09:56:22;;;;;;;21.75;11.40;;;;;;;14.57;100.00;100589.72;5034644;28;20131;-76
2022/09/14 09:58:50;;;;;;;18.48;11.70;;;;;;;14.57;100.00;100585.34;5034481;28;20094;-76
2022/09/14 10:01:34;;;;;;;17.88;12.07;;;;;;;14.63;100.00;100582.44;5033736;28;20480;-76
2022/09/14 10:04:01;;;;;;;18.48;12.25;;;;;;;14.71;100.00;100585.59;5034596;28;20032;-76
2022/09/14 10:06:27;;;;;;;20.27;12.98;;;;;;;14.84;100.00;100579.75;5034377;28;20049;-77
2022/09/14 10:08:53;;;;;;;21.95;13.52;;;;;;;14.94;100.00;100587.19;5033614;28;20435;-76
2022/09/14 10:11:36;;;;;;;19.20;13.15;;;;;;;15.01;100.00;100584.25;5034341;28;20099;-76
2022/09/14 10:14:03;;;;;;;14.23;12.20;;;;;;;14.96;100.00;100587.09;5034164;28;20104;-76
2022/09/14 10:16:41;;;;;;;16.17;12.07;;;;;;;14.88;100.00;100586.59;5034142;28;20060;-76
2022/09/14 10:19:33;;;;;;;18.67;12.93;;;;;;;14.94;100.00;100584.56;5034269;28;20064;-76
2022/09/14 10:22:17;;;;;;;18.08;12.73;;;;;;;14.94;100.00;100570.53;5030316;28;20390;-76
2022/09/14 10:24:53;;;;;;;20.30;12.18;;;;;;;14.97;100.00;100579.13;5033942;28;20028;-75
2022/09/14 10:27:35;;;;;;;19.58;12.43;;;;;;;14.91;100.00;100586.44;5034170;28;20029;-75
2022/09/14 10:30:03;;;;;;;16.17;11.73;;;;;;;14.85;100.00;100598.09;5033709;28;20029;-75
2022/09/14 10:32:31;;;;;;;16.73;12.00;;;;;;;14.80;100.00;100588.72;5033562;28;20401;-75
2022/09/14 10:34:57;;;;;;;15.82;11.30;;;;;;;14.78;100.00;100578.28;5033823;28;20462;-74
2022/09/14 10:37:36;;;;;;;17.75;11.90;;;;;;;14.82;100.00;100587.72;5032825;28;20417;-75
2022/09/14 10:40:17;;;;;;;14.90;11.30;;;;;;;14.74;100.00;100582.81;5033897;28;20051;-74
2022/09/14 10:43:02;;;;;;;16.75;10.35;;;;;;;14.67;100.00;100583.16;5032564;28;20466;-74
2022/09/14 10:45:34;;;;;;;16.77;10.95;;;;;;;14.65;100.00;100580.59;5033597;28;20029;-74
2022/09/14 10:48:22;;;;;;;15.68;11.15;;;;;;;14.74;100.00;100579.31;5033727;28;20060;-74
2022/09/14 10:50:57;;;;;;;17.15;11.13;;;;;;;14.73;100.00;100578.47;5032146;28;20072;-74
2022/09/14 10:53:44;;;;;;;14.98;10.32;;;;;;;14.76;100.00;100585.38;5033144;28;20037;-74
2022/09/14 10:56:18;;;;;;;17.88;11.38;;;;;;;14.72;100.00;100589.91;5033627;28;20026;-74
2022/09/14 10:59:05;;;;;;;18.33;10.43;;;;;;;14.69;100.00;100584.78;5033243;28;20128;-74
2022/09/14 11:02:16;;;;;;;13.35;10.88;;;;;;;14.74;100.00;100580.19;5033225;28;20030;-74
2022/09/14 11:05:00;;;;;;;16.60;10.75;;;;;;;14.83;100.00;100576.28;5032446;28;20033;-75
2022/09/14 11:08:07;;;;;;;18.30;9.38;;;;;;;14.79;100.00;100573.88;5033088;28;20112;-75
2022/09/14 11:11:04;;;;;;;17.98;10.18;;;;;;;14.79;100.00;100581.75;5032280;28;20029;-75
2022/09/14 11:13:50;;;;;;;11.80;9.82;;;;;;;14.81;100.00;100575.50;5032807;28;20040;-75
2022/09/14 11:16:54;;;;;;;14.32;9.50;;;;;;;14.81;100.00;100577.28;5033194;28;20390;-75
2022/09/14 11:20:17;;;;;;;11.00;7.72;;;;;;;14.68;100.00;100562.09;5021556;28;20477;-75
2022/09/14 11:22:55;;;;;;;11.38;7.88;;;;;;;14.55;100.00;100558.34;4972034;28;20039;-76
2022/09/14 11:25:30;;;;;;;10.85;6.32;;;;;;;14.36;100.00;100560.03;4971420;28;20035;-76
2022/09/14 11:28:08;;;;;;;10.45;6.05;;;;;;;14.32;100.00;100554.03;5017120;28;20091;-76